Time;durP1;ratioP1;P1;durP2;ratioP2;P2;SDS_P1;SDS_P2;PMS_P1;PMS_P2;Temp;Humidity;BMP_temperature;BMP_pressure;BME280_temperature;BME280_humidity;BME280_pressure;Samples;Min_cycle;Max_cycle;Signal;HPM_P1;HPM_P2
2022/12/02 00:01:08;;;;;;;;;;;;;;;;;;4981295;28;19976;-56
2022/12/02 00:03:35;;;;;;;;;;;;;;;;;;4984281;28;19922;-55
2022/12/02 00:06:01;;;;;;;;;;;;;;;;;;4986260;28;19921;-57
2022/12/02 00:08:30;;;;;;;;;;;;;;;;;;4990872;28;19944;-56
2022/12/02 00:10:56;;;;;;;;;;;;;;;;;;4982566;28;19928;-56
2022/12/02 00:13:22;;;;;;;;;;;;;;;;;;4983003;28;20415;-56
2022/12/02 00:16:10;;;;;;;;;;;;;;;;;;4983061;28;19925;-57
2022/12/02 00:18:35;;;;;;;;;;;;;;;;;;4987990;28;19929;-57
2022/12/02 00:21:01;;;;;;;;;;;;;;;;;;4983553;28;19918;-56
2022/12/02 00:23:26;;;;;;;;;;;;;;;;;;4982702;28;20343;-56
2022/12/02 00:25:52;;;;;;;;;;;;;;;;;;4985623;28;19918;-57
2022/12/02 00:28:17;;;;;;;;;;;;;;;;;;4982773;28;19922;-56
2022/12/02 00:30:43;;;;;;;;;;;;;;;;;;4987143;28;19929;-55
2022/12/02 00:33:08;;;;;;;;;;;;;;;;;;4986361;28;19965;-56
2022/12/02 00:35:34;;;;;;;;;;;;;;;;;;4981987;28;19925;-56
2022/12/02 00:37:59;;;;;;;;;;;;;;;;;;4985182;28;19922;-57
2022/12/02 00:40:24;;;;;;;;;;;;;;;;;;4983487;28;19922;-57
2022/12/02 00:42:50;;;;;;;;;;;;;;;;;;4987635;28;20012;-57
2022/12/02 00:47:59;;;;;;;;;;;;;;;;;;4980703;28;19925;-56
2022/12/02 00:50:25;;;;;;;;;;;;;;;;;;4980025;28;19918;-56
2022/12/02 00:52:50;;;;;;;;;;;;;;;;;;4979391;28;20303;-57
2022/12/02 00:55:16;;;;;;;;;;;;;;;;;;4980394;28;19919;-55
2022/12/02 00:57:41;;;;;;;;;;;;;;;;;;4978053;28;19918;-56
2022/12/02 01:00:08;;;;;;;;;;;;;;;;;;4985595;28;19924;-56
2022/12/02 01:02:33;;;;;;;;;;;;;;;;;;4983857;28;20005;-55
2022/12/02 01:04:59;;;;;;;;;;;;;;;;;;4982316;28;20009;-55
2022/12/02 01:07:24;;;;;;;;;;;;;;;;;;4979988;28;20403;-56
2022/12/02 01:09:49;;;;;;;;;;;;;;;;;;4982182;28;20364;-55
2022/12/02 01:12:15;;;;;;;;;;;;;;;;;;4996084;28;19918;-55
2022/12/02 01:14:40;;;;;;;;;;;;;;;;;;4980456;28;20026;-56
2022/12/02 01:17:05;;;;;;;;;;;;;;;;;;4984760;28;19922;-55
2022/12/02 01:19:31;;;;;;;;;;;;;;;;;;4981019;28;19922;-56
2022/12/02 01:21:56;;;;;;;;;;;;;;;;;;4985903;28;20499;-56
2022/12/02 01:24:21;;;;;;;;;;;;;;;;;;4985870;28;19945;-55
2022/12/02 01:26:47;;;;;;;;;;;;;;;;;;4983611;28;20005;-55
2022/12/02 01:29:12;;;;;;;;;;;;;;;;;;4986283;28;20185;-55
2022/12/02 01:31:37;;;;;;;;;;;;;;;;;;4979130;28;20017;-55
2022/12/02 01:34:03;;;;;;;;;;;;;;;;;;4978892;28;20438;-55
2022/12/02 01:36:28;;;;;;;;;;;;;;;;;;4982637;28;19918;-55
2022/12/02 01:38:53;;;;;;;;;;;;;;;;;;4985299;28;19925;-55
2022/12/02 01:41:18;;;;;;;;;;;;;;;;;;4985329;28;20078;-56
2022/12/02 01:43:44;;;;;;;;;;;;;;;;;;4982751;28;20284;-56
2022/12/02 01:46:09;;;;;;;;;;;;;;;;;;4977612;28;19918;-56
2022/12/02 01:48:35;;;;;;;;;;;;;;;;;;4979677;28;19922;-56
2022/12/02 01:51:01;;;;;;;;;;;;;;;;;;4977482;28;19973;-55
2022/12/02 01:53:26;;;;;;;;;;;;;;;;;;4981454;28;19918;-56
2022/12/02 01:55:51;;;;;;;;;;;;;;;;;;4975336;28;19922;-56
2022/12/02 01:58:18;;;;;;;;;;;;;;;;;;4977527;28;19922;-56
2022/12/02 02:00:44;;;;;;;;;;;;;;;;;;4980375;28;20161;-55
2022/12/02 02:03:09;;;;;;;;;;;;;;;;;;4980058;28;19954;-56
2022/12/02 02:05:35;;;;;;;;;;;;;;;;;;4975966;28;20283;-57
2022/12/02 02:08:04;;;;;;;;;;;;;;;;;;4977718;28;19934;-57
2022/12/02 02:10:30;;;;;;;;;;;;;;;;;;4983486;28;19922;-57
2022/12/02 02:12:55;;;;;;;;;;;;;;;;;;4983510;28;20295;-57
2022/12/02 02:15:21;;;;;;;;;;;;;;;;;;4982130;28;19926;-56
2022/12/02 02:17:47;;;;;;;;;;;;;;;;;;4981075;28;19922;-57
2022/12/02 02:20:14;;;;;;;;;;;;;;;;;;4982690;28;20571;-56
2022/12/02 02:22:42;;;;;;;;;;;;;;;;;;4986523;28;19918;-56
2022/12/02 02:25:12;;;;;;;;;;;;;;;;;;4976333;28;19921;-54
2022/12/02 02:27:37;;;;;;;;;;;;;;;;;;4979722;28;19921;-57
2022/12/02 02:30:03;;;;;;;;;;;;;;;;;;4981579;28;20407;-56
2022/12/02 02:32:28;;;;;;;;;;;;;;;;;;4981504;28;19928;-56
2022/12/02 02:34:53;;;;;;;;;;;;;;;;;;4982415;28;20553;-56
2022/12/02 02:37:19;;;;;;;;;;;;;;;;;;4979027;28;19925;-57
2022/12/02 02:39:44;;;;;;;;;;;;;;;;;;4982919;28;19924;-56
2022/12/02 02:42:09;;;;;;;;;;;;;;;;;;4978575;28;20488;-56
2022/12/02 02:44:35;;;;;;;;;;;;;;;;;;4983491;28;19997;-55
2022/12/02 02:47:00;;;;;;;;;;;;;;;;;;4981453;28;19922;-56
2022/12/02 02:49:25;;;;;;;;;;;;;;;;;;4979198;28;19926;-56
2022/12/02 02:51:51;;;;;;;;;;;;;;;;;;4984908;28;19918;-56
2022/12/02 02:54:16;;;;;;;;;;;;;;;;;;4976482;28;19925;-56
2022/12/02 02:56:42;;;;;;;;;;;;;;;;;;4974541;28;20372;-56
2022/12/02 02:59:11;;;;;;;;;;;;;;;;;;4985041;28;19922;-56
2022/12/02 03:01:36;;;;;;;;;;;;;;;;;;4977507;28;19925;-56
2022/12/02 03:04:05;;;;;;;;;;;;;;;;;;4985005;28;19918;-56
2022/12/02 03:06:32;;;;;;;;;;;;;;;;;;4981471;28;19925;-56
2022/12/02 03:08:59;;;;;;;;;;;;;;;;;;4980356;28;19965;-56
2022/12/02 03:11:25;;;;;;;;;;;;;;;;;;4985431;28;19922;-57
2022/12/02 03:13:50;;;;;;;;;;;;;;;;;;4986553;28;19971;-56
2022/12/02 03:16:18;;;;;;;;;;;;;;;;;;5003620;28;20395;-56
2022/12/02 03:18:44;;;;;;;;;;;;;;;;;;4985918;28;19918;-56
2022/12/02 03:21:10;;;;;;;;;;;;;;;;;;4986749;28;19975;-56
2022/12/02 03:23:35;;;;;;;;;;;;;;;;;;4991824;28;19919;-56
2022/12/02 03:26:00;;;;;;;;;;;;;;;;;;4991006;28;19945;-56
2022/12/02 03:28:26;;;;;;;;;;;;;;;;;;4987819;28;19969;-56
2022/12/02 03:30:51;;;;;;;;;;;;;;;;;;4990791;28;20371;-55
2022/12/02 03:33:17;;;;;;;;;;;;;;;;;;4989655;28;20369;-55
2022/12/02 03:35:42;;;;;;;;;;;;;;;;;;4985829;28;20032;-56
2022/12/02 03:38:08;;;;;;;;;;;;;;;;;;4987014;28;19918;-55
2022/12/02 03:40:33;;;;;;;;;;;;;;;;;;4986099;28;19918;-56
2022/12/02 03:42:58;;;;;;;;;;;;;;;;;;4990813;28;19918;-55
2022/12/02 03:45:23;;;;;;;;;;;;;;;;;;4989846;28;20386;-55
2022/12/02 03:47:49;;;;;;;;;;;;;;;;;;4986572;28;19962;-57
2022/12/02 03:50:14;;;;;;;;;;;;;;;;;;4987412;28;19918;-56
2022/12/02 03:52:40;;;;;;;;;;;;;;;;;;4991826;28;19921;-56
2022/12/02 03:55:05;;;;;;;;;;;;;;;;;;4984747;28;19932;-56
2022/12/02 03:57:32;;;;;;;;;;;;;;;;;;4983769;28;19954;-55
2022/12/02 03:59:57;;;;;;;;;;;;;;;;;;4984454;28;20351;-55
2022/12/02 04:02:22;;;;;;;;;;;;;;;;;;4989988;28;19918;-55
2022/12/02 04:04:48;;;;;;;;;;;;;;;;;;4990162;28;19918;-55
2022/12/02 04:07:13;;;;;;;;;;;;;;;;;;4990407;28;19925;-54
2022/12/02 04:09:38;;;;;;;;;;;;;;;;;;4983624;28;19918;-56
2022/12/02 04:12:04;;;;;;;;;;;;;;;;;;4982843;28;19918;-57
2022/12/02 04:14:29;;;;;;;;;;;;;;;;;;4983838;28;19972;-56
2022/12/02 04:16:54;;;;;;;;;;;;;;;;;;4987290;28;20360;-56
2022/12/02 04:19:19;;;;;;;;;;;;;;;;;;4984410;28;19992;-57
2022/12/02 04:21:45;;;;;;;;;;;;;;;;;;4984859;28;19922;-56
2022/12/02 04:24:10;;;;;;;;;;;;;;;;;;4981409;28;19925;-56
2022/12/02 04:26:35;;;;;;;;;;;;;;;;;;4985158;28;19969;-55
2022/12/02 04:29:01;;;;;;;;;;;;;;;;;;4986244;28;19926;-55
2022/12/02 04:31:26;;;;;;;;;;;;;;;;;;4981466;28;19918;-56
2022/12/02 04:33:51;;;;;;;;;;;;;;;;;;4988512;28;20430;-55
2022/12/02 04:36:16;;;;;;;;;;;;;;;;;;4986574;28;19942;-56
2022/12/02 04:38:42;;;;;;;;;;;;;;;;;;4982226;28;19924;-55
2022/12/02 04:41:07;;;;;;;;;;;;;;;;;;4985285;28;19925;-55
2022/12/02 04:43:32;;;;;;;;;;;;;;;;;;4985892;28;19922;-55
2022/12/02 04:45:58;;;;;;;;;;;;;;;;;;4982729;28;19964;-55
2022/12/02 04:48:23;;;;;;;;;;;;;;;;;;4986450;28;19922;-56
2022/12/02 04:50:48;;;;;;;;;;;;;;;;;;4982811;28;19918;-56
2022/12/02 04:53:13;;;;;;;;;;;;;;;;;;4983380;28;19925;-56
2022/12/02 04:55:39;;;;;;;;;;;;;;;;;;4980287;28;19973;-56
2022/12/02 04:58:04;;;;;;;;;;;;;;;;;;4990175;28;19918;-55
2022/12/02 05:00:29;;;;;;;;;;;;;;;;;;4984619;28;19918;-56
2022/12/02 05:02:55;;;;;;;;;;;;;;;;;;4982950;28;19918;-57
2022/12/02 05:05:21;;;;;;;;;;;;;;;;;;4980878;28;19993;-56
2022/12/02 05:07:46;;;;;;;;;;;;;;;;;;4984407;28;19964;-55
2022/12/02 05:10:11;;;;;;;;;;;;;;;;;;4979789;28;19922;-57
2022/12/02 05:12:37;;;;;;;;;;;;;;;;;;4982725;28;20307;-56
2022/12/02 05:15:02;;;;;;;;;;;;;;;;;;4981024;28;19937;-56
2022/12/02 05:17:29;;;;;;;;;;;;;;;;;;4980807;28;19922;-56
2022/12/02 05:19:55;;;;;;;;;;;;;;;;;;4985172;28;19925;-57
2022/12/02 05:22:20;;;;;;;;;;;;;;;;;;4983555;28;20347;-58
2022/12/02 05:24:47;;;;;;;;;;;;;;;;;;4981907;28;19926;-58
2022/12/02 05:27:12;;;;;;;;;;;;;;;;;;4977020;28;20057;-58
2022/12/02 05:29:37;;;;;;;;;;;;;;;;;;4984712;28;20474;-58
2022/12/02 05:32:03;;;;;;;;;;;;;;;;;;4979638;28;19926;-57
2022/12/02 05:34:28;;;;;;;;;;;;;;;;;;4981116;28;20001;-57
2022/12/02 05:36:53;;;;;;;;;;;;;;;;;;4982500;28;20407;-57
2022/12/02 05:39:18;;;;;;;;;;;;;;;;;;4985917;28;19922;-58
2022/12/02 05:41:45;;;;;;;;;;;;;;;;;;4982080;28;20299;-58
2022/12/02 05:44:21;;;;;;;;;;;;;;;;;;4979400;28;19929;-57
2022/12/02 05:46:46;;;;;;;;;;;;;;;;;;4983904;28;19929;-58
2022/12/02 05:49:16;;;;;;;;;;;;;;;;;;4983348;28;19922;-57
2022/12/02 05:51:42;;;;;;;;;;;;;;;;;;4978549;28;19969;-56
2022/12/02 05:54:07;;;;;;;;;;;;;;;;;;4980184;28;19996;-58
2022/12/02 05:56:33;;;;;;;;;;;;;;;;;;4983510;28;19925;-58
2022/12/02 05:59:04;;;;;;;;;;;;;;;;;;4983799;28;19980;-58
2022/12/02 06:01:34;;;;;;;;;;;;;;;;;;4979773;28;19924;-58
2022/12/02 06:03:59;;;;;;;;;;;;;;;;;;4984715;28;19949;-57
2022/12/02 06:06:28;;;;;;;;;;;;;;;;;;4985543;28;20538;-58
2022/12/02 06:08:55;;;;;;;;;;;;;;;;;;4982821;28;20415;-58
2022/12/02 06:11:20;;;;;;;;;;;;;;;;;;4979330;28;19918;-58
2022/12/02 06:13:45;;;;;;;;;;;;;;;;;;4984924;28;20474;-57
2022/12/02 06:16:17;;;;;;;;;;;;;;;;;;4986073;28;19987;-60
2022/12/02 06:18:42;;;;;;;;;;;;;;;;;;4985303;28;19998;-57
2022/12/02 06:21:12;;;;;;;;;;;;;;;;;;4977941;28;20065;-57
2022/12/02 06:23:38;;;;;;;;;;;;;;;;;;4981910;28;19957;-57
2022/12/02 06:26:04;;;;;;;;;;;;;;;;;;4977569;28;19948;-58
2022/12/02 06:28:37;;;;;;;;;;;;;;;;;;4989938;28;20339;-57
2022/12/02 06:31:30;;;;;;;;;;;;;;;;;;4985088;28;19921;-58
2022/12/02 06:33:56;;;;;;;;;;;;;;;;;;4975556;28;19964;-57
2022/12/02 06:39:14;;;;;;;;;;;;;;;;;;4836054;26;19925;-76
2022/12/02 06:41:39;;;;;;;;;;;;;;;;;;5028108;28;19978;-77
2022/12/02 06:46:55;;;;;;;;;;;;;;;;;;5030959;28;20336;-76
2022/12/02 06:49:21;;;;;;;;;;;;;;;;;;5030255;28;19936;-76
2022/12/02 06:51:57;;;;;;;;;;;;;;;;;;5045642;28;19928;-76
2022/12/02 06:54:25;;;;;;;;;;;;;;;;;;5025997;28;19963;-76
2022/12/02 06:56:50;;;;;;;;;;;;;;;;;;5022681;28;20318;-76
2022/12/02 06:59:19;;;;;;;;;;;;;;;;;;5026926;28;19921;-76
2022/12/02 07:01:45;;;;;;;;;;;;;;;;;;5028304;28;19921;-75
2022/12/02 07:04:25;;;;;;;;;;;;;;;;;;5027591;28;20478;-75
2022/12/02 07:06:51;;;;;;;;;;;;;;;;;;5018001;28;20000;-75
2022/12/02 07:09:35;;;;;;;;;;;;;;;;;;5022360;28;20498;-75
2022/12/02 07:12:08;;;;;;;;;;;;;;;;;;5023569;28;19932;-74
2022/12/02 07:14:42;;;;;;;;;;;;;;;;;;5028981;28;20315;-74
2022/12/02 07:17:24;;;;;;;;;;;;;;;;;;5026325;28;20265;-75
2022/12/02 07:19:56;;;;;;;;;;;;;;;;;;5029027;28;19917;-77
2022/12/02 07:22:29;;;;;;;;;;;;;;;;;;5021758;28;19928;-77
2022/12/02 07:24:56;;;;;;;;;;;;;;;;;;5026958;28;19928;-77
2022/12/02 07:27:23;;;;;;;;;;;;;;;;;;5028225;28;19956;-77
2022/12/02 07:29:48;;;;;;;;;;;;;;;;;;5028669;28;19960;-77
2022/12/02 07:32:16;;;;;;;;;;;;;;;;;;5024670;28;19968;-77
2022/12/02 07:34:41;;;;;;;;;;;;;;;;;;5025324;28;19940;-77
2022/12/02 07:37:07;;;;;;;;;;;;;;;;;;5024962;28;20383;-77
2022/12/02 07:39:32;;;;;;;;;;;;;;;;;;5031712;28;19917;-78
2022/12/02 07:41:57;;;;;;;;;;;;;;;;;;5045374;28;19925;-78
2022/12/02 07:44:22;;;;;;;;;;;;;;;;;;5029524;28;19933;-78
2022/12/02 07:46:48;;;;;;;;;;;;;;;;;;5023991;28;20442;-78
2022/12/02 07:49:13;;;;;;;;;;;;;;;;;;5028413;28;19934;-76
2022/12/02 07:51:38;;;;;;;;;;;;;;;;;;5026913;28;19953;-77
2022/12/02 07:54:04;;;;;;;;;;;;;;;;;;5029836;28;20636;-75
2022/12/02 07:56:34;;;;;;;;;;;;;;;;;;5028317;28;19924;-78
2022/12/02 07:59:01;;;;;;;;;;;;;;;;;;5035289;28;20059;-77
2022/12/02 08:01:26;;;;;;;;;;;;;;;;;;5032163;28;20025;-77
2022/12/02 08:03:54;;;;;;;;;;;;;;;;;;5049109;28;19995;-77
2022/12/02 08:06:19;;;;;;;;;;;;;;;;;;5032237;28;19994;-78
2022/12/02 08:08:44;;;;;;;;;;;;;;;;;;5048245;28;20030;-77
2022/12/02 08:11:12;;;;;;;;;;;;;;;;;;5048906;28;19917;-75
2022/12/02 08:13:42;;;;;;;;;;;;;;;;;;5030382;28;19924;-75
2022/12/02 08:16:07;;;;;;;;;;;;;;;;;;5026204;28;19917;-77
2022/12/02 08:18:33;;;;;;;;;;;;;;;;;;5045805;28;20292;-77
2022/12/02 08:20:59;;;;;;;;;;;;;;;;;;5029604;28;19971;-78
2022/12/02 08:23:24;;;;;;;;;;;;;;;;;;5044918;28;19960;-77
2022/12/02 08:25:49;;;;;;;;;;;;;;;;;;5029106;28;19928;-77
2022/12/02 08:28:14;;;;;;;;;;;;;;;;;;5029938;28;19928;-78
2022/12/02 08:30:42;;;;;;;;;;;;;;;;;;5029063;28;19917;-78
2022/12/02 08:33:07;;;;;;;;;;;;;;;;;;5029330;28;19948;-78
2022/12/02 08:35:33;;;;;;;;;;;;;;;;;;5030628;28;19917;-78
2022/12/02 08:37:58;;;;;;;;;;;;;;;;;;5030593;28;19921;-78
2022/12/02 08:40:24;;;;;;;;;;;;;;;;;;5046092;28;19979;-77
2022/12/02 08:42:49;;;;;;;;;;;;;;;;;;5029275;28;19921;-77
2022/12/02 08:45:17;;;;;;;;;;;;;;;;;;5047643;28;19917;-77
2022/12/02 08:47:42;;;;;;;;;;;;;;;;;;5041506;28;19914;-78
2022/12/02 08:50:10;;;;;;;;;;;;;;;;;;5027028;28;19921;-77
2022/12/02 08:52:35;;;;;;;;;;;;;;;;;;5033229;28;19928;-78
2022/12/02 08:55:01;;;;;;;;;;;;;;;;;;5044787;28;19918;-77
2022/12/02 08:57:26;;;;;;;;;;;;;;;;;;5029057;28;19917;-77
2022/12/02 08:59:51;;;;;;;;;;;;;;;;;;5030930;28;19979;-78
2022/12/02 09:02:19;;;;;;;;;;;;;;;;;;5045703;28;20011;-77
2022/12/02 09:04:44;;;;;;;;;;;;;;;;;;5030635;28;19921;-78
2022/12/02 09:07:10;;;;;;;;;;;;;;;;;;5029971;28;19924;-77
2022/12/02 09:09:35;;;;;;;;;;;;;;;;;;5029862;28;19921;-77
2022/12/02 09:12:01;;;;;;;;;;;;;;;;;;5047528;28;19936;-77
2022/12/02 09:14:27;;;;;;;;;;;;;;;;;;5031820;28;20020;-77
2022/12/02 09:16:53;;;;;;;;;;;;;;;;;;5032295;28;19916;-78
2022/12/02 09:19:19;;;;;;;;;;;;;;;;;;5030236;28;19925;-77
2022/12/02 09:21:46;;;;;;;;;;;;;;;;;;5031592;28;19928;-78
2022/12/02 09:24:12;;;;;;;;;;;;;;;;;;5028951;28;19978;-78
2022/12/02 09:26:37;;;;;;;;;;;;;;;;;;5031825;28;19917;-78
2022/12/02 09:29:02;;;;;;;;;;;;;;;;;;5031033;28;20379;-77
2022/12/02 09:31:27;;;;;;;;;;;;;;;;;;5046000;28;19921;-77
2022/12/02 09:33:53;;;;;;;;;;;;;;;;;;5046100;28;19979;-77
2022/12/02 09:36:20;;;;;;;;;;;;;;;;;;5046396;28;19963;-77
2022/12/02 09:38:46;;;;;;;;;;;;;;;;;;5025028;28;19939;-78
2022/12/02 09:41:11;;;;;;;;;;;;;;;;;;5027795;28;19925;-77
2022/12/02 09:43:36;;;;;;;;;;;;;;;;;;5022527;28;19917;-78
2022/12/02 09:46:04;;;;;;;;;;;;;;;;;;5024585;28;19917;-77
2022/12/02 09:48:29;;;;;;;;;;;;;;;;;;5028028;28;19921;-77
2022/12/02 09:50:56;;;;;;;;;;;;;;;;;;5021233;28;19943;-78
2022/12/02 09:53:23;;;;;;;;;;;;;;;;;;5028867;28;19997;-77
2022/12/02 09:55:49;;;;;;;;;;;;;;;;;;5030464;28;20045;-78
2022/12/02 09:58:16;;;;;;;;;;;;;;;;;;5025189;28;20288;-76
2022/12/02 10:00:41;;;;;;;;;;;;;;;;;;5030771;28;20348;-77
2022/12/02 10:03:07;;;;;;;;;;;;;;;;;;5025997;28;19959;-77
2022/12/02 10:05:33;;;;;;;;;;;;;;;;;;5042059;28;19960;-77
2022/12/02 10:07:59;;;;;;;;;;;;;;;;;;5040535;28;20373;-77
2022/12/02 10:10:37;;;;;;;;;;;;;;;;;;5023876;28;19991;-77
2022/12/02 10:13:07;;;;;;;;;;;;;;;;;;5028480;28;19917;-76
2022/12/02 10:15:32;;;;;;;;;;;;;;;;;;5045012;28;19917;-75
2022/12/02 10:18:01;;;;;;;;;;;;;;;;;;5026510;28;19917;-76
2022/12/02 10:20:29;;;;;;;;;;;;;;;;;;5044137;28;19917;-76
2022/12/02 10:23:04;;;;;;;;;;;;;;;;;;5045951;28;19935;-76
2022/12/02 10:25:30;;;;;;;;;;;;;;;;;;5044692;28;19917;-76
2022/12/02 10:27:57;;;;;;;;;;;;;;;;;;5029631;28;19925;-77
2022/12/02 10:30:25;;;;;;;;;;;;;;;;;;5030684;28;20066;-76
2022/12/02 10:32:57;;;;;;;;;;;;;;;;;;5028821;28;19917;-76
2022/12/02 10:35:22;;;;;;;;;;;;;;;;;;5045089;28;19928;-76
2022/12/02 10:37:47;;;;;;;;;;;;;;;;;;5027975;28;19921;-76
2022/12/02 10:40:17;;;;;;;;;;;;;;;;;;5029365;28;20298;-77
2022/12/02 10:42:43;;;;;;;;;;;;;;;;;;5028347;28;20418;-77
2022/12/02 10:45:14;;;;;;;;;;;;;;;;;;5028887;28;19921;-77
2022/12/02 10:47:40;;;;;;;;;;;;;;;;;;5038578;28;20363;-76
2022/12/02 10:50:14;;;;;;;;;;;;;;;;;;5044334;28;19948;-77
2022/12/02 10:52:45;;;;;;;;;;;;;;;;;;5044364;28;20333;-76
2022/12/02 10:55:10;;;;;;;;;;;;;;;;;;5029059;28;19917;-76
2022/12/02 10:57:37;;;;;;;;;;;;;;;;;;5040844;28;20366;-76
2022/12/02 11:00:13;;;;;;;;;;;;;;;;;;5028945;28;19925;-77
2022/12/02 11:02:45;;;;;;;;;;;;;;;;;;5021882;28;20027;-77
2022/12/02 11:05:13;;;;;;;;;;;;;;;;;;5026998;28;19945;-76
2022/12/02 11:07:38;;;;;;;;;;;;;;;;;;5025969;28;20358;-76
2022/12/02 11:10:04;;;;;;;;;;;;;;;;;;5030664;28;19940;-76
2022/12/02 11:12:31;;;;;;;;;;;;;;;;;;5029546;28;19964;-76
2022/12/02 11:14:56;;;;;;;;;;;;;;;;;;5029433;28;19963;-76
2022/12/02 11:18:00;;;;;;;;;;;;;;;;;;5027253;28;19953;-76
2022/12/02 11:20:31;;;;;;;;;;;;;;;;;;5031145;28;19913;-76
2022/12/02 11:22:59;;;;;;;;;;;;;;;;;;5025138;28;19925;-76
2022/12/02 11:25:43;;;;;;;;;;;;;;;;;;5023348;28;19925;-77
2022/12/02 11:28:17;;;;;;;;;;;;;;;;;;5042866;28;19921;-77
2022/12/02 11:30:44;;;;;;;;;;;;;;;;;;5026133;28;20004;-77
2022/12/02 11:33:10;;;;;;;;;;;;;;;;;;5049080;28;19920;-76
2022/12/02 11:36:01;;;;;;;;;;;;;;;;;;5030534;28;19917;-76
2022/12/02 11:38:26;;;;;;;;;;;;;;;;;;5033423;28;19972;-76
2022/12/02 11:40:51;;;;;;;;;;;;;;;;;;5033040;28;20445;-77
2022/12/02 11:43:37;;;;;;;;;;;;;;;;;;5033525;28;20545;-78
2022/12/02 11:46:04;;;;;;;;;;;;;;;;;;5009720;28;19925;-77
2022/12/02 11:48:29;;;;;;;;;;;;;;;;;;5032678;28;19921;-77
2022/12/02 11:50:54;;;;;;;;;;;;;;;;;;5034364;28;20015;-77
2022/12/02 11:53:21;;;;;;;;;;;;;;;;;;5034616;28;19963;-77
2022/12/02 11:55:53;;;;;;;;;;;;;;;;;;5033090;28;20062;-77
2022/12/02 11:58:20;;;;;;;;;;;;;;;;;;5032343;28;19917;-76
2022/12/02 12:01:18;;;;;;;;;;;;;;;;;;5035239;28;19917;-79
2022/12/02 12:03:44;;;;;;;;;;;;;;;;;;5010439;28;20565;-78
2022/12/02 12:06:14;;;;;;;;;;;;;;;;;;5032100;28;19924;-78
2022/12/02 12:08:43;;;;;;;;;;;;;;;;;;5031692;28;19921;-78
2022/12/02 12:11:14;;;;;;;;;;;;;;;;;;5031041;28;20011;-78
2022/12/02 12:13:59;;;;;;;;;;;;;;;;;;5024902;28;19917;-78
2022/12/02 12:16:25;;;;;;;;;;;;;;;;;;5033175;28;20382;-78
2022/12/02 12:18:50;;;;;;;;;;;;;;;;;;5032523;28;20024;-79
2022/12/02 12:21:31;;;;;;;;;;;;;;;;;;5046120;28;19920;-78
2022/12/02 12:24:15;;;;;;;;;;;;;;;;;;5037443;28;19925;-78
2022/12/02 12:26:41;;;;;;;;;;;;;;;;;;5030468;28;19917;-77
2022/12/02 12:29:07;;;;;;;;;;;;;;;;;;5026488;28;19927;-77
2022/12/02 12:31:32;;;;;;;;;;;;;;;;;;5029903;28;19917;-77
2022/12/02 12:33:57;;;;;;;;;;;;;;;;;;5029169;28;19921;-77
2022/12/02 12:36:26;;;;;;;;;;;;;;;;;;5031436;28;20379;-77
2022/12/02 12:38:54;;;;;;;;;;;;;;;;;;5028261;28;19920;-77
2022/12/02 12:41:19;;;;;;;;;;;;;;;;;;5031363;28;20014;-77
2022/12/02 12:43:44;;;;;;;;;;;;;;;;;;5029536;28;19963;-77
2022/12/02 12:46:10;;;;;;;;;;;;;;;;;;5031717;28;20005;-77
2022/12/02 12:48:35;;;;;;;;;;;;;;;;;;5046896;28;19925;-77
2022/12/02 12:51:01;;;;;;;;;;;;;;;;;;5031442;28;20539;-77
2022/12/02 12:53:28;;;;;;;;;;;;;;;;;;5027529;28;19917;-77
2022/12/02 12:55:54;;;;;;;;;;;;;;;;;;5031738;28;19917;-77
2022/12/02 12:58:19;;;;;;;;;;;;;;;;;;5032522;28;19923;-77
2022/12/02 13:00:44;;;;;;;;;;;;;;;;;;5030591;28;19925;-77
2022/12/02 13:03:09;;;;;;;;;;;;;;;;;;5029395;28;20379;-76
2022/12/02 13:05:35;;;;;;;;;;;;;;;;;;5028267;28;19917;-77
2022/12/02 13:08:00;;;;;;;;;;;;;;;;;;5030625;28;19927;-77
2022/12/02 13:10:25;;;;;;;;;;;;;;;;;;5032289;28;19924;-77
2022/12/02 13:12:51;;;;;;;;;;;;;;;;;;5047733;28;19925;-77
2022/12/02 13:15:18;;;;;;;;;;;;;;;;;;5031554;28;19948;-77
2022/12/02 13:17:46;;;;;;;;;;;;;;;;;;5031462;28;20016;-77
2022/12/02 13:20:14;;;;;;;;;;;;;;;;;;5030087;28;19971;-77
2022/12/02 13:22:40;;;;;;;;;;;;;;;;;;5029144;28;19925;-77
2022/12/02 13:25:06;;;;;;;;;;;;;;;;;;5045760;28;19917;-77
2022/12/02 13:27:32;;;;;;;;;;;;;;;;;;5027408;28;19924;-78
2022/12/02 13:29:58;;;;;;;;;;;;;;;;;;5029040;28;19921;-77
2022/12/02 13:32:23;;;;;;;;;;;;;;;;;;5028889;28;20376;-77
2022/12/02 13:34:48;;;;;;;;;;;;;;;;;;5031085;28;20111;-77
2022/12/02 13:37:14;;;;;;;;;;;;;;;;;;5031244;28;19920;-77
2022/12/02 13:39:40;;;;;;;;;;;;;;;;;;5028613;28;20012;-76
2022/12/02 13:42:05;;;;;;;;;;;;;;;;;;5031310;28;19944;-77
2022/12/02 13:44:30;;;;;;;;;;;;;;;;;;5030408;28;19936;-76
2022/12/02 13:46:56;;;;;;;;;;;;;;;;;;5031028;28;19917;-77
2022/12/02 13:49:21;;;;;;;;;;;;;;;;;;5030618;28;19928;-76
2022/12/02 13:51:46;;;;;;;;;;;;;;;;;;5030423;28;19972;-76
2022/12/02 13:54:12;;;;;;;;;;;;;;;;;;5031278;28;19924;-77
2022/12/02 13:56:38;;;;;;;;;;;;;;;;;;5028685;28;19944;-76
2022/12/02 13:59:03;;;;;;;;;;;;;;;;;;5027505;28;19975;-76
2022/12/02 14:01:29;;;;;;;;;;;;;;;;;;5031362;28;20028;-78
2022/12/02 14:03:55;;;;;;;;;;;;;;;;;;5028254;28;19921;-78
2022/12/02 14:06:20;;;;;;;;;;;;;;;;;;5030978;28;19978;-77
2022/12/02 14:08:46;;;;;;;;;;;;;;;;;;5030940;28;19929;-77
2022/12/02 14:11:11;;;;;;;;;;;;;;;;;;5031056;28;19921;-77
2022/12/02 14:13:37;;;;;;;;;;;;;;;;;;5030174;28;19921;-78
2022/12/02 14:16:03;;;;;;;;;;;;;;;;;;5027961;28;19923;-77
2022/12/02 14:18:28;;;;;;;;;;;;;;;;;;5024040;28;19921;-77
2022/12/02 14:20:53;;;;;;;;;;;;;;;;;;5029127;28;20007;-78
2022/12/02 14:23:21;;;;;;;;;;;;;;;;;;5030953;28;20394;-77
2022/12/02 14:25:46;;;;;;;;;;;;;;;;;;5029641;28;20090;-77
2022/12/02 14:28:12;;;;;;;;;;;;;;;;;;5026403;28;20443;-77
2022/12/02 14:30:37;;;;;;;;;;;;;;;;;;5030708;28;19920;-77
2022/12/02 14:33:14;;;;;;;;;;;;;;;;;;5028054;28;19928;-77
2022/12/02 14:35:42;;;;;;;;;;;;;;;;;;5043456;28;20322;-77
2022/12/02 14:38:07;;;;;;;;;;;;;;;;;;5024416;28;19932;-77
2022/12/02 14:40:33;;;;;;;;;;;;;;;;;;5025169;28;20357;-77
2022/12/02 14:42:59;;;;;;;;;;;;;;;;;;5040979;28;20375;-76
2022/12/02 14:45:25;;;;;;;;;;;;;;;;;;5025990;28;19932;-77
2022/12/02 14:47:50;;;;;;;;;;;;;;;;;;5024064;28;19928;-77
2022/12/02 14:50:16;;;;;;;;;;;;;;;;;;5027451;28;19925;-77
2022/12/02 14:52:42;;;;;;;;;;;;;;;;;;5028661;28;19921;-77
2022/12/02 14:55:08;;;;;;;;;;;;;;;;;;5028836;28;19917;-77
2022/12/02 14:57:33;;;;;;;;;;;;;;;;;;5027838;28;19982;-78
2022/12/02 15:00:01;;;;;;;;;;;;;;;;;;5027920;28;19944;-77
2022/12/02 15:02:26;;;;;;;;;;;;;;;;;;5040199;28;19921;-76
2022/12/02 15:04:51;;;;;;;;;;;;;;;;;;5025812;28;19924;-76
2022/12/02 15:07:17;;;;;;;;;;;;;;;;;;5040071;28;19925;-77
2022/12/02 15:09:45;;;;;;;;;;;;;;;;;;5025611;28;19921;-77
2022/12/02 15:12:10;;;;;;;;;;;;;;;;;;5027780;28;19924;-76
2022/12/02 15:14:35;;;;;;;;;;;;;;;;;;5025129;28;19921;-76
2022/12/02 15:17:03;;;;;;;;;;;;;;;;;;5023122;28;20374;-76
2022/12/02 15:19:29;;;;;;;;;;;;;;;;;;5026948;28;20835;-76
2022/12/02 15:21:54;;;;;;;;;;;;;;;;;;5022975;28;19925;-77
2022/12/02 15:24:19;;;;;;;;;;;;;;;;;;5026607;28;20640;-76
2022/12/02 15:26:45;;;;;;;;;;;;;;;;;;5026371;28;20522;-76
2022/12/02 15:29:11;;;;;;;;;;;;;;;;;;5041018;28;19929;-76
2022/12/02 15:31:36;;;;;;;;;;;;;;;;;;5024575;28;20303;-76
2022/12/02 15:34:02;;;;;;;;;;;;;;;;;;5027356;28;20378;-77
2022/12/02 15:36:27;;;;;;;;;;;;;;;;;;5025963;28;19921;-76
2022/12/02 15:38:55;;;;;;;;;;;;;;;;;;5026937;28;19936;-76
2022/12/02 15:41:20;;;;;;;;;;;;;;;;;;5043544;28;19921;-76
2022/12/02 15:43:45;;;;;;;;;;;;;;;;;;5033466;28;19925;-76
2022/12/02 15:46:11;;;;;;;;;;;;;;;;;;5042200;28;20292;-77
2022/12/02 15:48:36;;;;;;;;;;;;;;;;;;5023165;28;20319;-78
2022/12/02 15:51:01;;;;;;;;;;;;;;;;;;5023722;28;19924;-76
2022/12/02 15:53:27;;;;;;;;;;;;;;;;;;5023269;28;20375;-77
2022/12/02 15:55:54;;;;;;;;;;;;;;;;;;5025209;28;19925;-76
2022/12/02 15:58:20;;;;;;;;;;;;;;;;;;5025383;28;19956;-77
2022/12/02 16:00:47;;;;;;;;;;;;;;;;;;5026723;28;20018;-77
2022/12/02 16:03:13;;;;;;;;;;;;;;;;;;5025568;28;19917;-79
2022/12/02 16:05:38;;;;;;;;;;;;;;;;;;5025795;28;19928;-76
2022/12/02 16:08:04;;;;;;;;;;;;;;;;;;5022941;28;19921;-76
2022/12/02 16:10:29;;;;;;;;;;;;;;;;;;5029671;28;20003;-76
2022/12/02 16:12:54;;;;;;;;;;;;;;;;;;5026214;28;19927;-77
2022/12/02 16:15:20;;;;;;;;;;;;;;;;;;5027941;28;20327;-76
2022/12/02 16:17:45;;;;;;;;;;;;;;;;;;5044991;28;19923;-77
2022/12/02 16:20:11;;;;;;;;;;;;;;;;;;5033637;28;19929;-77
2022/12/02 16:22:36;;;;;;;;;;;;;;;;;;5031702;28;19920;-77
2022/12/02 16:25:02;;;;;;;;;;;;;;;;;;5028911;28;19933;-77
2022/12/02 16:27:27;;;;;;;;;;;;;;;;;;5038119;28;20016;-77
2022/12/02 16:29:52;;;;;;;;;;;;;;;;;;5030995;28;19921;-77
2022/12/02 16:32:18;;;;;;;;;;;;;;;;;;5032421;28;20371;-77
2022/12/02 16:34:43;;;;;;;;;;;;;;;;;;5032062;28;20435;-77
2022/12/02 16:37:09;;;;;;;;;;;;;;;;;;5047161;28;19917;-77
2022/12/02 16:39:35;;;;;;;;;;;;;;;;;;5032799;28;19952;-77
2022/12/02 16:42:00;;;;;;;;;;;;;;;;;;5032878;28;19917;-77
2022/12/02 16:44:25;;;;;;;;;;;;;;;;;;5033413;28;20002;-77
2022/12/02 16:46:51;;;;;;;;;;;;;;;;;;5031708;28;19920;-77
2022/12/02 16:49:16;;;;;;;;;;;;;;;;;;5031875;28;19974;-77
2022/12/02 16:51:42;;;;;;;;;;;;;;;;;;5030688;28;20279;-77